createdAt,value
2023-02-12T00:01:11.708Z,99048.09
2023-02-12T00:06:15.843Z,99057.56
2023-02-12T00:11:20.996Z,99055.16
2023-02-12T00:16:25.333Z,99059.41
2023-02-12T00:21:27.326Z,99065.41
2023-02-12T00:26:29.194Z,99061.88
2023-02-12T00:31:31.762Z,99047.19
2023-02-12T00:36:33.642Z,99048.31
2023-02-12T00:41:35.359Z,99055.22
2023-02-12T00:46:37.037Z,99043.53
2023-02-12T00:51:38.930Z,99052.50
2023-02-12T00:56:41.529Z,99054.59
2023-02-12T01:01:43.257Z,99055.41
2023-02-12T01:06:45.088Z,99051.19
2023-02-12T01:11:46.727Z,99050.34
2023-02-12T01:16:48.505Z,99055.59
2023-02-12T01:21:50.325Z,99065.25
2023-02-12T01:26:52.022Z,99055.22
2023-02-12T01:31:53.814Z,99060.47
2023-02-12T01:36:55.573Z,99053.16
2023-02-12T01:41:59.731Z,99047.75
2023-02-12T01:47:04.270Z,99044.16
2023-02-12T01:52:25.663Z,99048.41
2023-02-12T01:57:33.787Z,99053.47
2023-02-12T02:02:38.189Z,99048.66
2023-02-12T02:07:40.691Z,99050.56
2023-02-12T02:13:01.001Z,99051.56
2023-02-12T02:18:17.196Z,99049.69
2023-02-12T02:23:57.748Z,99050.06
2023-02-12T02:28:59.457Z,99052.88
2023-02-12T02:34:24.735Z,99050.34
2023-02-12T02:39:39.304Z,99056.25
2023-02-12T02:44:50.690Z,99053.84
2023-02-12T02:50:01.805Z,99056.34
2023-02-12T02:55:08.511Z,99060.19
2023-02-12T03:00:26.220Z,99059.72
2023-02-12T03:05:44.190Z,99059.53
2023-02-12T03:10:51.349Z,99059.72
2023-02-12T03:16:04.725Z,99057.00
2023-02-12T03:21:20.142Z,99056.81
2023-02-12T03:26:26.140Z,99058.50
2023-02-12T03:31:37.894Z,99072.72
2023-02-12T03:36:52.749Z,99065.50
2023-02-12T03:42:04.042Z,99070.13
2023-02-12T03:47:22.456Z,99083.00
2023-02-12T03:52:24.371Z,99086.47
2023-02-12T03:57:31.357Z,99093.69
2023-02-12T04:02:34.307Z,99089.00
2023-02-12T04:07:37.134Z,99095.06
2023-02-12T04:13:00.304Z,99098.88
2023-02-12T04:18:11.359Z,99100.97
2023-02-12T04:23:51.737Z,99100.41
2023-02-12T04:29:14.434Z,99105.66
2023-02-12T04:34:26.634Z,99099.56
2023-02-12T04:39:31.402Z,99106.66
2023-02-12T04:44:38.933Z,99100.66
2023-02-12T04:49:40.742Z,99100.28
2023-02-12T04:54:42.663Z,99103.69
2023-02-12T04:59:44.378Z,99111.28
2023-02-12T05:04:46.100Z,99115.28
2023-02-12T05:09:47.764Z,99112.56
2023-02-12T05:14:49.361Z,99126.31
2023-02-12T05:19:51.518Z,99129.22
2023-02-12T05:24:53.188Z,99134.28
2023-02-12T05:29:54.920Z,99127.00
2023-02-12T05:34:56.634Z,99127.66
2023-02-12T05:39:58.389Z,99130.56
2023-02-12T05:45:00.173Z,99143.09
2023-02-12T05:50:01.824Z,99158.44
2023-02-12T05:55:03.743Z,99150.72
2023-02-12T06:00:07.548Z,99147.34
2023-02-12T06:05:13.971Z,99142.75
2023-02-12T06:10:15.770Z,99148.19
2023-02-12T06:15:17.601Z,99155.19
2023-02-12T06:20:19.406Z,99160.13
2023-02-12T06:25:21.119Z,99165.25
2023-02-12T06:30:22.872Z,99176.28
2023-02-12T06:35:24.590Z,99182.69
2023-02-12T06:40:26.426Z,99180.25
2023-02-12T06:45:28.201Z,99190.38
2023-02-12T06:50:30.423Z,99188.41
2023-02-12T06:55:32.126Z,99182.88
2023-02-12T07:00:34.336Z,99172.22
2023-02-12T07:05:39.976Z,99173.53
2023-02-12T07:10:41.664Z,99175.31
2023-02-12T07:15:43.364Z,99171.69
2023-02-12T07:20:45.025Z,99176.03
2023-02-12T07:25:55.365Z,99169.50
2023-02-12T07:30:57.406Z,99159.13
2023-02-12T07:36:02.767Z,99170.06
2023-02-12T07:41:16.528Z,99172.88
2023-02-12T07:46:21.419Z,99166.72
2023-02-12T07:51:23.264Z,99175.78
2023-02-12T07:56:30.856Z,99158.94
2023-02-12T08:01:36.055Z,99175.53
2023-02-12T08:06:40.984Z,99177.69
2023-02-12T08:11:44.031Z,99176.44
2023-02-12T08:16:47.825Z,99175.22
2023-02-12T08:21:51.810Z,99176.75
2023-02-12T08:26:53.911Z,99179.66
2023-02-12T08:32:01.892Z,99180.22
2023-02-12T08:37:05.818Z,99179.34
2023-02-12T08:42:07.517Z,99183.13
2023-02-12T08:47:10.143Z,99178.13
2023-02-12T08:52:11.859Z,99179.47
2023-02-12T08:57:13.648Z,99171.56
2023-02-12T09:02:15.395Z,99179.63
2023-02-12T09:07:17.116Z,99187.69
2023-02-12T09:12:18.753Z,99188.66
2023-02-12T09:17:20.440Z,99178.44
2023-02-12T09:22:22.118Z,99189.94
2023-02-12T09:27:24.559Z,99196.34
2023-02-12T09:32:26.428Z,99203.44
2023-02-12T09:37:28.213Z,99203.44
2023-02-12T09:42:57.503Z,99205.03
2023-02-12T09:48:18.328Z,99210.75
2023-02-12T09:53:24.813Z,99208.84
2023-02-12T09:58:35.615Z,99216.56
2023-02-12T10:03:37.361Z,99218.25
2023-02-12T10:08:50.884Z,99214.84
2023-02-12T10:13:53.855Z,99216.44
2023-02-12T10:19:01.582Z,99218.63
2023-02-12T10:24:28.425Z,99222.09
2023-02-12T10:29:38.115Z,99232.97
2023-02-12T10:34:41.958Z,99229.97
2023-02-12T10:39:51.956Z,99226.31
2023-02-12T10:44:53.652Z,99226.19
2023-02-12T10:50:00.617Z,99219.84
2023-02-12T10:55:02.686Z,99217.50
2023-02-12T11:00:26.307Z,99225.28
2023-02-12T11:05:31.872Z,99222.47
2023-02-12T11:10:40.311Z,99208.59
2023-02-12T11:15:49.378Z,99209.03
2023-02-12T11:20:56.506Z,99214.09
2023-02-12T11:26:07.523Z,99210.91
2023-02-12T11:31:12.063Z,99210.53
2023-02-12T11:36:20.933Z,99201.69
2023-02-12T11:41:38.563Z,99205.94
2023-02-12T11:46:46.997Z,99206.38
2023-02-12T11:51:49.792Z,99197.72
2023-02-12T11:56:51.465Z,99204.44
2023-02-12T12:01:57.796Z,99194.25
2023-02-12T12:07:12.476Z,99194.72
2023-02-12T12:12:41.666Z,99190.94
2023-02-12T12:18:15.143Z,99193.34
2023-02-12T12:23:25.263Z,99188.16
2023-02-12T12:28:33.213Z,99180.97
2023-02-12T12:33:51.588Z,99175.13
2023-02-12T12:39:04.318Z,99183.09
2023-02-12T12:44:24.579Z,99182.19
2023-02-12T12:49:35.613Z,99188.94
2023-02-12T12:54:55.536Z,99180.75
2023-02-12T13:00:33.492Z,99176.75
2023-02-12T13:06:07.540Z,99172.59
2023-02-12T13:11:16.854Z,99167.81
2023-02-12T13:16:29.279Z,99171.41
2023-02-12T13:22:06.751Z,99173.81
2023-02-12T13:27:16.702Z,99178.28
2023-02-12T13:32:36.596Z,99175.81
2023-02-12T13:37:47.144Z,99170.00
2023-02-12T13:43:29.939Z,99171.25
2023-02-12T13:48:59.573Z,99167.47
2023-02-12T13:54:23.243Z,99163.88
2023-02-12T13:59:39.901Z,99153.88
2023-02-12T14:04:41.891Z,99162.50
2023-02-12T14:09:49.731Z,99151.69
2023-02-12T14:14:55.271Z,99153.91
2023-02-12T14:20:23.843Z,99147.81
2023-02-12T14:25:25.575Z,99147.81
2023-02-12T14:30:38.343Z,99142.59
2023-02-12T14:35:42.835Z,99144.94
2023-02-12T14:40:46.973Z,99142.06
2023-02-12T14:45:49.099Z,99127.91
2023-02-12T14:50:52.233Z,99126.13
2023-02-12T14:55:55.797Z,99129.94
2023-02-12T15:01:01.354Z,99121.56
2023-02-12T15:06:03.001Z,99123.44
2023-02-12T15:11:23.329Z,99119.06
2023-02-12T15:16:54.218Z,99118.81
2023-02-12T15:21:56.878Z,99117.78
2023-02-12T15:27:00.732Z,99112.72
2023-02-12T15:32:07.764Z,99104.69
2023-02-12T15:37:09.980Z,99091.03
2023-02-12T15:42:35.034Z,99097.50
2023-02-12T15:47:36.763Z,99101.25
2023-02-12T15:52:41.189Z,99098.09
2023-02-12T15:57:48.755Z,99099.72
2023-02-12T16:02:52.856Z,99103.25
2023-02-12T16:07:55.071Z,99098.56
2023-02-12T16:12:56.945Z,99094.28
2023-02-12T16:17:59.908Z,99104.22
2023-02-12T16:23:06.523Z,99103.22
2023-02-12T16:28:22.373Z,99107.97
2023-02-12T16:33:31.907Z,99109.19
2023-02-12T16:38:44.631Z,99114.59
2023-02-12T16:43:51.262Z,99114.81
2023-02-12T16:48:55.786Z,99113.97
2023-02-12T16:54:03.075Z,99117.84
2023-02-12T16:59:05.047Z,99120.69
2023-02-12T17:04:09.072Z,99122.91
2023-02-12T17:09:11.161Z,99126.38
2023-02-12T17:14:16.613Z,99126.53
2023-02-12T17:19:18.651Z,99132.19
2023-02-12T17:24:20.298Z,99128.03
2023-02-12T17:29:24.282Z,99132.56
2023-02-12T17:34:27.552Z,99131.34
2023-02-12T17:39:30.743Z,99132.63
2023-02-12T17:44:32.471Z,99143.03
2023-02-12T17:49:35.450Z,99134.59
2023-02-12T17:54:37.357Z,99140.09
2023-02-12T17:59:39.116Z,99145.84
2023-02-12T18:04:41.024Z,99137.72
2023-02-12T18:09:43.385Z,99144.53
2023-02-12T18:14:45.277Z,99134.59
2023-02-12T18:19:48.003Z,99145.41
2023-02-12T18:24:50.345Z,99151.19
2023-02-12T18:29:51.998Z,99145.47
2023-02-12T18:34:55.356Z,99147.66
2023-02-12T18:39:57.117Z,99142.25
2023-02-12T18:44:58.885Z,99143.97
2023-02-12T18:50:00.777Z,99152.78
2023-02-12T18:55:02.504Z,99138.91
2023-02-12T19:00:04.933Z,99137.06
2023-02-12T19:05:06.974Z,99143.31
2023-02-12T19:10:08.920Z,99132.53
2023-02-12T19:15:10.672Z,99137.94
2023-02-12T19:20:14.646Z,99131.84
2023-02-12T19:25:16.698Z,99134.72
2023-02-12T19:30:18.806Z,99135.72
2023-02-12T19:35:20.758Z,99141.63
2023-02-12T19:40:22.680Z,99146.19
2023-02-12T19:45:24.435Z,99150.75
2023-02-12T19:50:26.077Z,99155.50
2023-02-12T19:55:27.756Z,99148.75
2023-02-12T20:00:29.505Z,99161.06
2023-02-12T20:05:31.196Z,99158.50
2023-02-12T20:10:32.908Z,99163.91
2023-02-12T20:15:38.694Z,99148.72
2023-02-12T20:20:41.196Z,99159.50
2023-02-12T20:25:44.768Z,99157.47
2023-02-12T20:30:47.797Z,99152.63
2023-02-12T20:35:56.980Z,99152.78
2023-02-12T20:41:03.353Z,99155.47
2023-02-12T20:46:06.361Z,99156.16
2023-02-12T20:51:11.088Z,99158.84
2023-02-12T20:56:22.457Z,99164.91
2023-02-12T21:01:27.283Z,99165.59
2023-02-12T21:06:29.026Z,99162.56
2023-02-12T21:11:30.739Z,99160.88
2023-02-12T21:16:35.049Z,99159.84
2023-02-12T21:21:39.042Z,99163.75
2023-02-12T21:26:40.698Z,99153.97
2023-02-12T21:31:44.693Z,99142.78
2023-02-12T21:36:47.827Z,99143.97
2023-02-12T21:41:50.921Z,99150.03
2023-02-12T21:46:53.462Z,99155.44
2023-02-12T21:51:58.650Z,99148.50
2023-02-12T21:57:00.497Z,99155.88
2023-02-12T22:02:02.381Z,99151.38
2023-02-12T22:07:04.146Z,99162.34
2023-02-12T22:12:06.313Z,99155.38
2023-02-12T22:17:08.019Z,99163.78
2023-02-12T22:22:09.667Z,99165.47
2023-02-12T22:27:11.344Z,99162.44
2023-02-12T22:32:13.231Z,99170.81
2023-02-12T22:37:15.135Z,99165.72
2023-02-12T22:42:16.885Z,99166.06
2023-02-12T22:47:18.560Z,99160.34
2023-02-12T22:52:20.555Z,99160.22
2023-02-12T22:57:22.249Z,99156.38
2023-02-12T23:02:24.091Z,99158.41
2023-02-12T23:07:26.266Z,99173.31
2023-02-12T23:12:27.925Z,99157.13
2023-02-12T23:17:29.613Z,99163.22
2023-02-12T23:22:31.282Z,99168.63
2023-02-12T23:27:33.013Z,99174.56
2023-02-12T23:32:34.652Z,99170.19
2023-02-12T23:37:36.300Z,99166.63
2023-02-12T23:42:38.058Z,99177.44
2023-02-12T23:47:39.935Z,99172.03
2023-02-12T23:52:41.577Z,99165.13
2023-02-12T23:57:43.200Z,99154.81
